Time;durP1;ratioP1;P1;durP2;ratioP2;P2;SDS_P1;SDS_P2;PMS_P1;PMS_P2;Temp;Humidity;BMP_temperature;BMP_pressure;BME280_temperature;BME280_humidity;BME280_pressure;Samples;Min_cycle;Max_cycle;Signal;HPM_P1;HPM_P2
2021/12/17 00:01:00;;;;;;;43.42;19.08;;;;;;;1.12;100.00;95688.28;5088345;28;20048;-68
2021/12/17 00:03:37;;;;;;;41.72;17.77;;;;;;;1.06;100.00;95673.50;5086125;28;20565;-68
2021/12/17 00:08:37;;;;;;;35.58;15.73;;;;;;;0.99;100.00;95708.41;5093269;28;20051;-68
2021/12/17 00:11:05;;;;;;;39.50;16.70;;;;;;;0.98;100.00;95696.53;5092966;28;20046;-68
2021/12/17 00:13:34;;;;;;;42.60;16.67;;;;;;;1.09;100.00;95701.41;5091296;28;20116;-68
2021/12/17 00:16:01;;;;;;;34.92;15.85;;;;;;;1.14;100.00;95712.03;5093403;28;20160;-69
2021/12/17 00:18:38;;;;;;;35.03;16.55;;;;;;;1.14;100.00;95706.91;5089839;28;20070;-68
2021/12/17 00:48:50;;;;;;;29.05;12.32;;;;;;;1.00;100.00;95694.63;5093697;28;20107;-68
2021/12/17 00:51:54;;;;;;;34.35;14.35;;;;;;;0.99;100.00;95695.56;5090501;28;20551;-68
2021/12/17 00:54:22;;;;;;;29.58;12.70;;;;;;;0.94;100.00;95701.97;5093102;28;20035;-68
2021/12/17 00:56:52;;;;;;;29.70;13.73;;;;;;;0.83;100.00;95686.81;5113366;27;20535;-68
2021/12/17 00:59:20;;;;;;;25.60;12.93;;;;;;;1.01;100.00;95696.22;5078834;28;20054;-68
2021/12/17 01:01:48;;;;;;;23.27;13.13;;;;;;;0.89;100.00;95688.78;5091301;28;20058;-68
2021/12/17 01:04:16;;;;;;;29.45;13.77;;;;;;;0.88;100.00;95682.06;5108793;27;20039;-68
2021/12/17 01:06:43;;;;;;;25.00;10.63;;;;;;;0.84;100.00;95693.53;5086681;28;20512;-68
2021/12/17 01:13:16;;;;;;;28.58;11.95;;;;;;;0.84;100.00;95685.84;4941909;28;20081;-68
2021/12/17 01:16:02;;;;;;;22.27;12.05;;;;;;;0.82;100.00;95671.56;4984129;28;20053;-68
2021/12/17 01:35:52;;;;;;;26.67;10.18;;;;;;;0.60;100.00;95671.09;4967748;28;20095;-68
2021/12/17 01:44:07;;;;;;;34.50;13.77;;;;;;;0.82;100.00;95661.31;4967918;28;20046;-68
2021/12/17 01:46:36;;;;;;;23.42;12.35;;;;;;;0.81;100.00;95652.00;4966668;28;20125;-68
2021/12/17 02:00:05;;;;;;;26.52;12.27;;;;;;;0.87;100.00;95665.03;5112843;27;20181;-68
2021/12/17 02:02:45;;;;;;;24.05;11.35;;;;;;;0.82;100.00;95656.19;5094156;28;20591;-68
2021/12/17 02:05:17;;;;;;;23.05;10.90;;;;;;;0.87;100.00;95659.91;5075426;28;20452;-68
2021/12/17 02:07:46;;;;;;;25.30;10.80;;;;;;;0.90;100.00;95664.75;5078078;28;20036;-69
2021/12/17 02:21:18;;;;;;;21.65;10.00;;;;;;;0.91;100.00;95660.41;5072900;28;20127;-69
2021/12/17 02:31:44;;;;;;;30.45;11.60;;;;;;;0.86;100.00;95642.09;5096122;28;20499;-69
2021/12/17 02:36:48;;;;;;;17.85;9.35;;;;;;;0.91;100.00;95650.16;5076851;28;20127;-69
2021/12/17 02:47:21;;;;;;;18.48;9.63;;;;;;;0.83;100.00;95643.22;5092619;28;20036;-69
2021/12/17 02:49:49;;;;;;;18.08;9.05;;;;;;;0.73;100.00;95622.00;5075254;28;20123;-69
2021/12/17 02:52:17;;;;;;;17.55;8.68;;;;;;;0.64;100.00;95626.25;5071522;28;20044;-69
2021/12/17 02:54:44;;;;;;;23.05;11.75;;;;;;;0.68;100.00;95637.00;5093251;28;20039;-68
2021/12/17 02:57:12;;;;;;;13.60;7.72;;;;;;;0.65;100.00;95642.44;5090995;28;20043;-69
2021/12/17 02:59:40;;;;;;;16.80;8.35;;;;;;;0.53;100.00;95637.53;5078692;28;21038;-69
2021/12/17 03:02:08;;;;;;;16.45;8.20;;;;;;;0.63;100.00;95641.78;5077554;28;20528;-68
2021/12/17 03:04:40;;;;;;;16.63;8.10;;;;;;;0.56;100.00;95641.59;5073655;28;20048;-69
2021/12/17 03:07:13;;;;;;;18.02;8.50;;;;;;;0.63;100.00;95652.03;5075688;28;20050;-69
2021/12/17 03:12:18;;;;;;;19.40;9.60;;;;;;;0.48;100.00;95642.31;5078836;28;20044;-68
2021/12/17 03:14:56;;;;;;;20.80;9.93;;;;;;;0.51;100.00;95634.31;5088168;28;20044;-69
2021/12/17 03:26:19;;;;;;;20.40;9.80;;;;;;;0.78;100.00;95630.03;5073898;28;20046;-69
2021/12/17 03:28:53;;;;;;;17.67;9.73;;;;;;;0.84;100.00;95628.63;5071545;28;20101;-69
2021/12/17 03:31:23;;;;;;;23.02;10.98;;;;;;;0.94;100.00;95640.41;5075875;28;20416;-69
2021/12/17 03:33:54;;;;;;;33.42;15.25;;;;;;;1.01;100.00;95634.66;5109577;28;20090;-69
2021/12/17 03:36:21;;;;;;;28.38;14.13;;;;;;;0.95;100.00;95620.66;5103770;28;20079;-68
2021/12/17 03:38:50;;;;;;;24.85;10.50;;;;;;;1.01;100.00;95621.81;5090433;28;20063;-69
2021/12/17 03:41:25;;;;;;;23.05;10.43;;;;;;;1.05;100.00;95633.41;5080316;28;20100;-68
2021/12/17 03:44:00;;;;;;;18.95;11.25;;;;;;;0.89;100.00;95627.22;5074827;28;20044;-70
2021/12/17 03:46:49;;;;;;;17.33;8.00;;;;;;;1.05;100.00;95630.84;5096959;28;20152;-70
2021/12/17 03:49:18;;;;;;;18.85;9.15;;;;;;;1.06;100.00;95617.88;5071571;28;20043;-69
2021/12/17 03:51:54;;;;;;;18.15;9.35;;;;;;;1.03;100.00;95627.63;5072919;28;20044;-69
2021/12/17 03:54:23;;;;;;;21.25;9.57;;;;;;;0.93;100.00;95608.00;5074922;28;20051;-69
2021/12/17 03:56:52;;;;;;;17.65;8.18;;;;;;;0.89;100.00;95604.13;5075838;28;20047;-68
2021/12/17 03:59:20;;;;;;;19.80;9.35;;;;;;;0.93;100.00;95610.56;5081488;28;20505;-69
2021/12/17 04:01:47;;;;;;;19.13;9.82;;;;;;;0.99;100.00;95600.66;5078937;28;20082;-69
2021/12/17 04:04:13;;;;;;;18.63;8.45;;;;;;;0.94;100.00;95614.75;5095865;28;20115;-68
2021/12/17 04:06:41;;;;;;;22.85;10.18;;;;;;;0.99;100.00;95616.03;5078123;28;20036;-69
2021/12/17 04:09:32;;;;;;;17.48;8.38;;;;;;;1.04;100.00;95613.84;5078941;28;20412;-68
2021/12/17 04:12:12;;;;;;;18.85;9.43;;;;;;;1.03;100.00;95596.84;5075925;28;20044;-69
2021/12/17 04:15:04;;;;;;;18.05;9.35;;;;;;;1.15;100.00;95616.13;5097313;28;20805;-70
2021/12/17 04:17:40;;;;;;;19.75;10.90;;;;;;;1.17;100.00;95614.25;5095258;28;20045;-69
2021/12/17 04:20:07;;;;;;;20.73;8.90;;;;;;;1.12;100.00;95606.19;5091239;28;20048;-69
2021/12/17 04:22:34;;;;;;;20.73;10.30;;;;;;;1.10;100.00;95592.72;5078057;28;20130;-70
2021/12/17 04:25:03;;;;;;;20.25;9.93;;;;;;;1.07;100.00;95572.50;5082169;28;20120;-69
2021/12/17 04:27:31;;;;;;;20.15;10.32;;;;;;;1.19;100.00;95590.97;5074266;28;20044;-69
2021/12/17 04:30:00;;;;;;;24.83;9.63;;;;;;;1.12;100.00;95589.03;5077074;28;20048;-69
2021/12/17 04:32:27;;;;;;;20.13;9.23;;;;;;;1.08;100.00;95568.94;5081645;28;20044;-69
2021/12/17 04:34:54;;;;;;;23.00;9.20;;;;;;;1.25;100.00;95575.75;5078786;28;20098;-69
2021/12/17 04:37:28;;;;;;;22.58;11.02;;;;;;;1.24;100.00;95543.38;5075864;28;20501;-69
2021/12/17 04:39:59;;;;;;;20.63;10.70;;;;;;;1.57;100.00;95574.28;5074861;28;20495;-69
2021/12/17 04:43:22;;;;;;;25.58;10.68;;;;;;;1.48;100.00;95549.53;5082007;28;20083;-69
2021/12/17 04:45:29;;;;;;;19.58;8.43;;;;;;;1.58;100.00;95564.81;5069758;28;20048;-69
2021/12/17 04:59:19;;;;;;;20.30;10.27;;;;;;;1.48;100.00;95577.78;5076406;28;20075;-69
2021/12/17 05:01:48;;;;;;;27.33;11.38;;;;;;;1.40;100.00;95568.28;5109114;27;20108;-69
2021/12/17 05:04:16;;;;;;;43.50;17.52;;;;;;;1.48;100.00;95570.09;5081378;28;20478;-69
2021/12/17 05:06:44;;;;;;;23.15;11.05;;;;;;;1.48;100.00;95570.09;5069922;28;20422;-70
2021/12/17 05:09:24;;;;;;;27.13;13.55;;;;;;;1.46;100.00;95561.72;5076175;28;20178;-70
2021/12/17 05:20:33;;;;;;;21.17;10.93;;;;;;;1.50;100.00;95568.16;5076931;28;20062;-69
2021/12/17 05:23:01;;;;;;;20.45;10.25;;;;;;;1.57;100.00;95574.28;5091277;28;20043;-69
2021/12/17 05:25:29;;;;;;;21.85;12.43;;;;;;;1.41;100.00;95558.84;5079313;28;20040;-69
2021/12/17 05:28:02;;;;;;;19.58;11.13;;;;;;;1.56;100.00;95567.53;5074456;28;20505;-70
2021/12/17 05:30:35;;;;;;;18.88;11.48;;;;;;;1.57;100.00;95571.72;5053209;28;20039;-69
2021/12/17 05:33:02;;;;;;;20.35;9.75;;;;;;;1.52;100.00;95566.25;5072831;28;20043;-70
2021/12/17 05:35:31;;;;;;;18.92;9.57;;;;;;;1.44;100.00;95558.50;5072765;28;20054;-69
2021/12/17 05:38:00;;;;;;;18.40;9.20;;;;;;;1.42;100.00;95545.03;5070359;28;20062;-69
2021/12/17 05:40:28;;;;;;;15.27;7.90;;;;;;;1.33;100.00;95552.72;5073650;28;20413;-69
2021/12/17 05:42:59;;;;;;;19.70;10.30;;;;;;;1.39;100.00;95558.16;5074340;28;20044;-69
2021/12/17 05:45:34;;;;;;;15.50;10.02;;;;;;;1.23;100.00;95539.19;5101601;27;20152;-71
2021/12/17 05:48:06;;;;;;;22.52;10.30;;;;;;;1.24;100.00;95553.66;5060849;28;20081;-72
2021/12/17 05:50:37;;;;;;;14.68;8.23;;;;;;;1.13;100.00;95556.47;5078121;28;20048;-72
2021/12/17 05:53:05;;;;;;;25.00;11.23;;;;;;;1.04;100.00;95558.19;5064316;28;20083;-73
2021/12/17 05:55:34;;;;;;;30.88;11.70;;;;;;;0.98;100.00;95543.41;5066597;28;20475;-73
2021/12/17 05:58:02;;;;;;;31.77;13.80;;;;;;;1.04;100.00;95552.25;5097421;27;20038;-73
2021/12/17 06:00:31;;;;;;;30.30;16.13;;;;;;;0.96;100.00;95555.59;5064315;28;20043;-72
2021/12/17 06:03:18;;;;;;;31.42;16.48;;;;;;;0.91;100.00;95563.75;5082806;28;20393;-72
2021/12/17 06:05:57;;;;;;;24.25;13.77;;;;;;;0.88;100.00;95558.94;5077777;28;20044;-73
2021/12/17 06:08:24;;;;;;;27.42;13.60;;;;;;;0.86;100.00;95568.53;5060757;28;20093;-73
2021/12/17 06:10:51;;;;;;;24.42;11.77;;;;;;;0.69;100.00;95569.41;5065288;28;20138;-73
2021/12/17 06:13:18;;;;;;;16.42;8.85;;;;;;;0.79;100.00;95570.09;5061084;28;20036;-73
2021/12/17 06:15:48;;;;;;;18.02;7.97;;;;;;;0.80;100.00;95587.09;5061935;28;20048;-73
2021/12/17 06:18:15;;;;;;;18.23;9.93;;;;;;;0.84;100.00;95596.09;5086906;28;20096;-73
2021/12/17 06:20:42;;;;;;;52.53;21.75;;;;;;;0.76;100.00;95570.41;5075756;28;20131;-73
2021/12/17 06:23:09;;;;;;;19.52;10.50;;;;;;;0.84;100.00;95580.69;5105507;27;20052;-72
2021/12/17 06:25:36;;;;;;;25.25;10.20;;;;;;;0.79;100.00;95570.09;5084784;28;20046;-73
2021/12/17 06:28:04;;;;;;;32.85;13.25;;;;;;;0.73;100.00;95563.00;5071049;28;20050;-74
2021/12/17 06:30:31;;;;;;;29.00;10.48;;;;;;;0.76;100.00;95565.28;5078839;28;20047;-73
2021/12/17 06:32:59;;;;;;;36.20;14.15;;;;;;;0.86;100.00;95563.38;5075972;28;20401;-73
2021/12/17 06:35:30;;;;;;;39.92;19.02;;;;;;;0.96;100.00;95571.00;5075850;28;20063;-72
2021/12/17 06:37:57;;;;;;;36.38;15.98;;;;;;;0.99;100.00;95585.25;5087379;28;20105;-73
2021/12/17 06:40:29;;;;;;;24.65;12.77;;;;;;;0.95;100.00;95580.47;5077182;28;20051;-73
2021/12/17 06:42:57;;;;;;;22.92;11.23;;;;;;;0.78;100.00;95563.38;5054247;28;20040;-73
2021/12/17 06:45:40;;;;;;;23.08;9.93;;;;;;;0.80;100.00;95558.88;5073581;28;20067;-72
2021/12/17 06:48:09;;;;;;;19.58;9.32;;;;;;;0.93;100.00;95566.94;5070254;28;20124;-73
2021/12/17 07:17:14;;;;;;;14.45;8.70;;;;;;;1.25;100.00;95574.97;5069494;28;20123;-73
2021/12/17 07:23:03;;;;;;;12.15;7.75;;;;;;;1.31;100.00;95553.81;5066136;28;20110;-72
2021/12/17 07:34:09;;;;;;;12.48;6.80;;;;;;;1.38;100.00;95534.25;5001056;28;20080;-72
2021/12/17 07:36:43;;;;;;;12.75;6.82;;;;;;;1.38;100.00;95536.03;5079405;28;20088;-73
2021/12/17 07:39:15;;;;;;;8.35;5.07;;;;;;;1.44;100.00;95535.41;5078038;28;20090;-72
2021/12/17 07:41:45;;;;;;;9.85;5.80;;;;;;;1.42;100.00;95527.06;5092692;28;20050;-72
2021/12/17 07:44:32;;;;;;;17.48;9.73;;;;;;;1.55;100.00;95544.56;5086508;28;20082;-72
2021/12/17 07:47:18;;;;;;;13.45;8.18;;;;;;;1.50;100.00;95530.44;5086504;28;20059;-72
2021/12/17 07:50:14;;;;;;;12.18;7.45;;;;;;;1.56;100.00;95541.06;5080014;28;20436;-72
2021/12/17 07:53:04;;;;;;;23.88;14.40;;;;;;;1.56;100.00;95541.84;5084800;28;20054;-72
2021/12/17 07:55:38;;;;;;;;;;;;;;;1.59;100.00;95533.84;5072071;28;20075;-72
2021/12/17 07:58:09;;;;;;;11.52;7.22;;;;;;;1.53;100.00;95534.44;5116758;27;19923;-72
2021/12/17 08:00:39;;;;;;;12.35;7.05;;;;;;;1.57;100.00;95522.94;5069129;28;20451;-72
2021/12/17 08:03:06;;;;;;;14.90;8.25;;;;;;;1.70;100.00;95537.88;5110864;27;20056;-72
2021/12/17 08:05:53;;;;;;;9.60;5.75;;;;;;;1.67;100.00;95538.97;5074467;28;20036;-73
2021/12/17 08:08:21;;;;;;;15.80;8.60;;;;;;;1.71;100.00;95552.31;5068341;28;20045;-72
2021/12/17 08:11:22;;;;;;;12.02;6.95;;;;;;;1.76;100.00;95551.84;5083309;28;20092;-71
2021/12/17 08:13:51;;;;;;;11.80;7.50;;;;;;;1.70;100.00;95523.25;5065430;28;20056;-72
2021/12/17 08:32:06;;;;;;;13.30;7.55;;;;;;;2.00;100.00;95544.16;5062114;28;20047;-74
2021/12/17 08:34:49;;;;;;;17.58;9.57;;;;;;;2.08;100.00;95541.59;5100213;27;20043;-74
2021/12/17 08:37:18;;;;;;;19.52;10.48;;;;;;;2.05;100.00;95539.34;5082100;28;20123;-74
2021/12/17 08:39:47;;;;;;;20.05;9.95;;;;;;;2.01;100.00;95519.28;5070053;28;20403;-74
2021/12/17 08:42:30;;;;;;;15.00;8.55;;;;;;;1.97;100.00;95518.78;5072008;28;20044;-73
2021/12/17 08:45:00;;;;;;;18.40;9.73;;;;;;;2.08;100.00;95515.88;5074897;28;20134;-73
2021/12/17 08:47:50;;;;;;;20.42;10.27;;;;;;;2.15;100.00;95525.53;5088854;28;20066;-73
2021/12/17 08:50:44;;;;;;;18.80;9.10;;;;;;;2.19;100.00;95512.19;5082712;28;20054;-73
2021/12/17 08:53:12;;;;;;;20.80;12.25;;;;;;;2.24;100.00;95516.84;5077269;28;20043;-73
2021/12/17 08:55:40;;;;;;;22.70;12.45;;;;;;;2.23;100.00;95512.66;5072534;28;20448;-73
2021/12/17 08:58:12;;;;;;;19.92;10.55;;;;;;;2.37;100.00;95499.16;5093493;28;20158;-73
2021/12/17 09:00:40;;;;;;;103.85;39.55;;;;;;;2.46;100.00;95498.19;5074814;28;20146;-73
2021/12/17 09:03:09;;;;;;;19.35;12.25;;;;;;;2.56;100.00;95512.66;5074320;28;20054;-73
2021/12/17 09:05:50;;;;;;;19.90;11.40;;;;;;;2.72;100.00;95511.78;5104005;27;20047;-72
2021/12/17 09:08:23;;;;;;;21.63;11.60;;;;;;;2.84;100.00;95506.13;5071227;28;20162;-73
2021/12/17 09:10:55;;;;;;;25.20;13.10;;;;;;;2.81;100.00;95501.31;5071586;28;20039;-73
2021/12/17 09:13:36;;;;;;;22.33;13.68;;;;;;;2.67;100.00;95486.56;5069381;28;20051;-74
2021/12/17 09:16:04;;;;;;;15.90;10.52;;;;;;;2.87;100.00;95474.91;5062103;28;20069;-74
2021/12/17 09:18:35;;;;;;;11.82;7.28;;;;;;;3.00;100.00;95473.59;5110449;27;20063;-74
2021/12/17 09:21:12;;;;;;;15.52;8.13;;;;;;;3.16;100.00;95483.00;5072663;28;20052;-73
2021/12/17 09:24:09;;;;;;;10.55;7.10;;;;;;;3.12;100.00;95472.25;5081553;28;20188;-73
2021/12/17 09:26:55;;;;;;;10.05;5.68;;;;;;;3.18;100.00;95481.84;5087268;28;20059;-73
2021/12/17 09:29:28;;;;;;;13.05;7.00;;;;;;;3.18;100.00;95481.84;5070494;28;20407;-73
2021/12/17 09:31:56;;;;;;;10.20;5.95;;;;;;;3.09;100.00;95466.63;5089581;28;20046;-73
2021/12/17 09:34:23;;;;;;;11.68;7.25;;;;;;;3.04;100.00;95464.53;5091771;28;20485;-74
2021/12/17 09:36:50;;;;;;;15.73;8.98;;;;;;;3.07;100.00;95459.06;5084783;28;20040;-74
2021/12/17 09:39:18;;;;;;;14.27;8.23;;;;;;;3.18;100.00;95466.41;5089077;28;20412;-74
2021/12/17 09:41:50;;;;;;;14.52;7.82;;;;;;;3.18;100.00;95443.25;5085729;28;20131;-73
2021/12/17 09:44:18;;;;;;;12.23;7.57;;;;;;;3.27;100.00;95458.66;5095568;28;20105;-73
2021/12/17 09:46:47;;;;;;;30.25;15.52;;;;;;;3.32;100.00;95441.72;5084141;28;20048;-73
2021/12/17 09:49:19;;;;;;;15.90;7.45;;;;;;;3.18;100.00;95435.53;5085989;28;20842;-73
2021/12/17 09:51:47;;;;;;;15.52;7.43;;;;;;;3.27;100.00;95438.06;5086021;28;20520;-73
2021/12/17 09:54:14;;;;;;;7.95;5.10;;;;;;;3.24;100.00;95434.03;5092743;28;20042;-75
2021/12/17 09:56:41;;;;;;;11.00;4.53;;;;;;;3.23;100.00;95420.38;5089203;28;20139;-75
2021/12/17 09:59:08;;;;;;;15.88;8.85;;;;;;;3.30;100.00;95409.41;5085615;28;20046;-74
2021/12/17 10:01:37;;;;;;;14.15;5.68;;;;;;;3.30;100.00;95417.13;5094442;28;20040;-74
2021/12/17 10:04:27;;;;;;;11.25;7.20;;;;;;;3.25;100.00;95405.56;5085383;28;20048;-74
2021/12/17 10:07:16;;;;;;;10.05;6.32;;;;;;;3.30;100.00;95406.84;5081850;28;20140;-73
2021/12/17 10:09:52;;;;;;;12.05;7.18;;;;;;;3.30;100.00;95406.84;5081405;28;20442;-74
2021/12/17 10:12:33;;;;;;;10.25;5.38;;;;;;;3.04;100.00;95361.59;5079253;28;20489;-74
2021/12/17 10:15:11;;;;;;;10.73;5.75;;;;;;;3.19;100.00;95384.84;5082736;28;20032;-74
2021/12/17 10:18:00;;;;;;;10.25;5.47;;;;;;;3.23;100.00;95376.59;5084308;28;20047;-74
2021/12/17 10:20:30;;;;;;;8.07;5.85;;;;;;;3.34;100.00;95393.44;5086926;28;20055;-73
2021/12/17 10:23:01;;;;;;;9.95;6.00;;;;;;;3.29;100.00;95379.47;5086581;28;20774;-74
2021/12/17 10:25:30;;;;;;;9.55;6.53;;;;;;;3.33;100.00;95391.03;5085351;28;20065;-74
2021/12/17 10:28:00;;;;;;;10.27;6.50;;;;;;;3.41;100.00;95378.09;5089245;28;20049;-73
2021/12/17 10:30:29;;;;;;;9.35;4.63;;;;;;;3.40;100.00;95397.09;5097731;28;20048;-72
2021/12/17 10:32:59;;;;;;;7.88;4.95;;;;;;;3.41;100.00;95367.78;5069995;28;20054;-73
2021/12/17 10:35:30;;;;;;;8.18;4.38;;;;;;;3.43;100.00;95376.16;5092990;28;20093;-73
2021/12/17 10:38:11;;;;;;;6.25;4.05;;;;;;;3.43;100.00;95358.13;5086151;28;20072;-73
2021/12/17 10:40:44;;;;;;;6.15;4.68;;;;;;;3.48;100.00;95342.16;5083148;28;20152;-73
2021/12/17 10:46:06;;;;;;;10.35;6.20;;;;;;;3.59;100.00;95339.94;5083761;28;20047;-73
2021/12/17 10:51:21;;;;;;;16.63;8.57;;;;;;;3.60;100.00;95333.84;5082045;28;20493;-74
2021/12/17 10:53:54;;;;;;;19.00;9.43;;;;;;;3.60;100.00;95346.72;5074683;28;20051;-74
2021/12/17 10:56:30;;;;;;;11.65;6.43;;;;;;;3.58;100.00;95338.38;5064685;28;20044;-73
2021/12/17 10:59:03;;;;;;;14.38;8.07;;;;;;;3.57;100.00;95339.34;5080909;28;20046;-73
2021/12/17 11:01:54;;;;;;;11.75;7.15;;;;;;;3.49;100.00;95334.25;5082657;28;20105;-73
2021/12/17 11:04:23;;;;;;;10.10;6.95;;;;;;;3.49;100.00;95329.09;5083541;28;20123;-74
2021/12/17 11:07:04;;;;;;;9.38;6.20;;;;;;;3.47;100.00;95325.88;5085131;28;20051;-72
2021/12/17 11:09:38;;;;;;;6.13;4.45;;;;;;;3.48;100.00;95337.00;5086163;28;20036;-74
2021/12/17 11:12:13;;;;;;;9.98;6.32;;;;;;;3.52;100.00;95327.97;5090711;28;20040;-74
2021/12/17 11:14:45;;;;;;;10.65;5.55;;;;;;;3.43;100.00;95316.91;5084236;28;20036;-73
2021/12/17 11:17:14;;;;;;;11.10;6.63;;;;;;;3.40;100.00;95304.38;5082346;28;20046;-74
2021/12/17 11:20:05;;;;;;;12.05;6.60;;;;;;;3.47;100.00;95307.88;5093719;28;20536;-73
2021/12/17 11:22:32;;;;;;;9.40;5.30;;;;;;;3.48;100.00;95309.47;5090397;28;20040;-73
2021/12/17 11:25:00;;;;;;;8.02;4.93;;;;;;;3.33;100.00;95298.34;5088326;28;20040;-70
2021/12/17 11:27:28;;;;;;;9.75;5.88;;;;;;;3.38;100.00;95285.75;5093719;28;20048;-71
2021/12/17 11:29:55;;;;;;;10.43;5.82;;;;;;;3.52;100.00;95303.00;5089643;28;20410;-71
2021/12/17 11:32:22;;;;;;;8.80;5.13;;;;;;;3.39;100.00;95282.19;5084627;28;20036;-72
2021/12/17 11:34:50;;;;;;;8.48;5.07;;;;;;;3.47;100.00;95283.91;5085716;28;20043;-72
2021/12/17 11:37:19;;;;;;;6.05;4.07;;;;;;;3.31;100.00;95274.53;5084636;28;20519;-72
2021/12/17 11:39:56;;;;;;;36.90;14.27;;;;;;;3.28;100.00;95274.88;5088978;28;20037;-72
2021/12/17 11:42:54;;;;;;;10.45;5.85;;;;;;;3.30;100.00;95278.09;5082521;28;20048;-72
2021/12/17 11:45:28;;;;;;;8.82;5.68;;;;;;;3.28;100.00;95274.88;5092508;28;20051;-71
2021/12/17 11:48:21;;;;;;;8.88;4.90;;;;;;;3.30;100.00;95265.22;5071913;28;20062;-71
2021/12/17 11:51:12;;;;;;;8.02;4.88;;;;;;;3.23;100.00;95265.91;5090440;28;20036;-71
2021/12/17 11:54:14;;;;;;;6.10;3.85;;;;;;;3.18;100.00;95255.31;5095039;28;20040;-71
2021/12/17 11:56:51;;;;;;;7.90;4.47;;;;;;;3.15;100.00;95255.69;5094146;28;20111;-71
2021/12/17 11:59:24;;;;;;;9.75;5.95;;;;;;;3.16;100.00;95253.91;5089753;28;20040;-71
2021/12/17 12:02:16;;;;;;;9.07;6.00;;;;;;;3.18;100.00;95250.19;5083678;28;20043;-71
2021/12/17 12:04:48;;;;;;;13.25;6.68;;;;;;;3.08;100.00;95248.81;5063674;28;20513;-72
2021/12/17 12:07:30;;;;;;;6.85;4.63;;;;;;;3.08;100.00;95239.34;5087997;28;20042;-72
2021/12/17 12:10:01;;;;;;;10.35;5.88;;;;;;;3.07;100.00;95248.03;5080183;28;20560;-71
2021/12/17 12:12:34;;;;;;;9.57;4.95;;;;;;;3.03;100.00;95233.91;5082270;28;20429;-72
2021/12/17 12:15:17;;;;;;;7.15;5.15;;;;;;;3.02;100.00;95245.19;5085587;28;20123;-72
2021/12/17 12:18:06;;;;;;;9.43;4.75;;;;;;;2.94;100.00;95216.94;5068843;28;20394;-72
2021/12/17 12:20:52;;;;;;;8.60;4.45;;;;;;;2.95;100.00;95244.25;5082328;28;20127;-72
2021/12/17 12:23:24;;;;;;;;;;;;;;;2.90;100.00;95242.22;5083518;28;20118;-72
2021/12/17 12:26:11;;;;;;;6.93;3.72;;;;;;;2.78;100.00;95228.97;5079997;28;19950;-73
2021/12/17 12:28:44;;;;;;;3.60;3.10;;;;;;;2.72;100.00;95229.66;5092990;28;20035;-72
2021/12/17 12:31:26;;;;;;;6.43;3.53;;;;;;;2.69;100.00;95219.72;5074452;28;20115;-72
2021/12/17 12:34:20;;;;;;;5.35;3.40;;;;;;;2.66;100.00;95225.19;5083885;28;20060;-72
2021/12/17 12:37:08;;;;;;;5.53;3.28;;;;;;;2.60;100.00;95215.59;5080895;28;20086;-73
2021/12/17 12:39:48;;;;;;;7.35;3.97;;;;;;;2.59;100.00;95213.97;5083636;28;20054;-74
2021/12/17 12:42:23;;;;;;;3.42;2.80;;;;;;;2.43;100.00;95174.56;5078049;28;20064;-75
2021/12/17 12:44:51;;;;;;;4.15;2.97;;;;;;;2.56;100.00;95198.91;5085923;28;20516;-74
2021/12/17 12:47:24;;;;;;;5.68;3.80;;;;;;;2.58;100.00;95196.97;5090776;28;20441;-74
2021/12/17 12:49:56;;;;;;;4.68;3.35;;;;;;;2.54;100.00;95205.97;5087021;28;20036;-73
2021/12/17 12:52:29;;;;;;;5.00;3.25;;;;;;;2.60;100.00;95195.03;5081725;28;20502;-73
2021/12/17 12:54:58;;;;;;;7.03;3.35;;;;;;;2.53;100.00;95196.69;5081539;28;20036;-74
2021/12/17 12:57:29;;;;;;;6.50;3.08;;;;;;;2.48;100.00;95192.88;5086000;28;20056;-73
2021/12/17 13:00:00;;;;;;;7.97;4.75;;;;;;;2.52;100.00;95207.94;5085072;28;20042;-73
2021/12/17 13:02:27;;;;;;;9.35;5.25;;;;;;;2.52;100.00;95210.50;5084202;28;20047;-74
2021/12/17 13:04:57;;;;;;;5.38;4.40;;;;;;;2.48;100.00;95187.72;5094288;28;20032;-73
2021/12/17 13:07:44;;;;;;;7.85;5.28;;;;;;;2.59;100.00;95208.84;5094706;28;20044;-73
2021/12/17 13:10:24;;;;;;;7.22;4.13;;;;;;;2.51;100.00;95190.91;5087058;28;20043;-75
2021/12/17 13:13:04;;;;;;;6.72;4.07;;;;;;;2.48;100.00;95198.00;5095865;28;20559;-74
2021/12/17 13:16:02;;;;;;;6.93;4.38;;;;;;;2.39;100.00;95196.44;5093011;28;20051;-74
2021/12/17 13:24:13;;;;;;;6.75;4.00;;;;;;;2.33;100.00;95204.84;5084971;28;20601;-73
2021/12/17 13:26:49;;;;;;;4.60;2.80;;;;;;;2.22;100.00;95198.31;5070689;28;20040;-74
2021/12/17 13:29:39;;;;;;;4.55;2.17;;;;;;;2.29;100.00;95188.97;5086953;28;20056;-74
2021/12/17 13:32:10;;;;;;;5.82;3.63;;;;;;;2.24;100.00;95200.72;5088846;28;20048;-74
2021/12/17 13:34:41;;;;;;;4.57;3.60;;;;;;;2.28;100.00;95212.25;5089558;28;20052;-75
2021/12/17 13:37:16;;;;;;;4.20;3.33;;;;;;;2.26;100.00;95204.72;5083906;28;20039;-74
2021/12/17 13:39:54;;;;;;;5.63;2.85;;;;;;;2.33;100.00;95179.13;5084186;28;20035;-73
2021/12/17 13:42:22;;;;;;;3.65;2.33;;;;;;;2.33;100.00;95183.47;5087464;28;20050;-75
2021/12/17 13:44:58;;;;;;;5.65;3.25;;;;;;;2.24;100.00;95175.03;5085255;28;20032;-75
2021/12/17 13:47:42;;;;;;;5.40;3.80;;;;;;;2.16;100.00;95172.50;5069265;28;20134;-75
2021/12/17 13:50:28;;;;;;;7.72;3.90;;;;;;;2.27;100.00;95184.97;5081638;28;20039;-75
2021/12/17 13:53:01;;;;;;;6.40;2.80;;;;;;;2.33;100.00;95178.34;5089008;28;20040;-75
2021/12/17 13:55:41;;;;;;;9.07;5.07;;;;;;;2.20;100.00;95164.28;5085964;28;20405;-76
2021/12/17 13:58:12;;;;;;;4.78;2.70;;;;;;;2.16;100.00;95164.78;5092717;28;20061;-75
2021/12/17 14:00:46;;;;;;;4.00;2.58;;;;;;;2.14;100.00;95198.34;5087565;28;20043;-74
2021/12/17 14:03:16;;;;;;;5.18;3.47;;;;;;;2.19;100.00;95192.72;5091966;28;20062;-74
2021/12/17 14:05:44;;;;;;;17.73;6.60;;;;;;;2.18;100.00;95175.69;5077685;28;20075;-74
2021/12/17 14:08:14;;;;;;;6.40;3.63;;;;;;;2.09;100.00;95173.19;5089157;28;20492;-75
2021/12/17 14:10:42;;;;;;;4.78;3.08;;;;;;;2.02;100.00;95182.53;5087481;28;20115;-75
2021/12/17 14:13:16;;;;;;;5.97;4.10;;;;;;;1.96;100.00;95188.31;5096166;28;20527;-75
2021/12/17 14:16:02;;;;;;;6.05;3.90;;;;;;;1.81;100.00;95195.16;5098192;28;20036;-75
2021/12/17 14:18:30;;;;;;;7.25;4.13;;;;;;;1.83;100.00;95193.22;5091607;27;20582;-74
2021/12/17 14:21:03;;;;;;;10.50;5.80;;;;;;;1.89;100.00;95203.63;5084648;28;20960;-75
2021/12/17 14:23:31;;;;;;;6.22;3.45;;;;;;;1.72;100.00;95213.16;5073195;28;20052;-77
2021/12/17 14:26:00;;;;;;;7.57;4.65;;;;;;;1.72;100.00;95218.28;5095528;28;20051;-76
2021/12/17 14:28:37;;;;;;;7.10;3.50;;;;;;;1.64;100.00;95226.03;5097042;28;20040;-79
2021/12/17 14:31:09;;;;;;;12.93;5.22;;;;;;;1.58;100.00;95218.19;5090764;28;20028;-80
2021/12/17 14:33:51;;;;;;;9.43;4.38;;;;;;;1.40;100.00;95223.53;5083053;28;20059;-80
2021/12/17 14:36:38;;;;;;;9.73;4.55;;;;;;;1.32;100.00;95222.56;5088522;28;20041;-78
2021/12/17 14:39:13;;;;;;;9.40;5.03;;;;;;;1.27;100.00;95227.41;5094518;28;20040;-76
2021/12/17 14:41:59;;;;;;;10.10;5.28;;;;;;;1.23;100.00;95221.00;5094122;28;20126;-76
2021/12/17 14:44:40;;;;;;;7.97;4.38;;;;;;;1.19;100.00;95217.16;5095525;28;20307;-76
2021/12/17 14:47:24;;;;;;;16.27;6.03;;;;;;;1.20;100.00;95226.44;5090570;28;20541;-75
2021/12/17 15:01:15;;;;;;;6.97;4.40;;;;;;;1.18;100.00;95209.63;5092857;28;20028;-73
2021/12/17 15:03:42;;;;;;;6.82;4.80;;;;;;;1.24;100.00;95214.91;5089204;28;20044;-74
2021/12/17 15:06:12;;;;;;;7.38;4.68;;;;;;;1.31;100.00;95221.00;5091694;28;20130;-75
2021/12/17 15:08:40;;;;;;;13.18;5.25;;;;;;;1.31;100.00;95221.00;5093099;28;20058;-74
2021/12/17 15:11:27;;;;;;;7.70;4.55;;;;;;;1.12;100.00;95205.94;5085806;28;20048;-73
2021/12/17 15:13:54;;;;;;;9.02;4.45;;;;;;;1.26;100.00;95228.38;5095201;28;20520;-73
2021/12/17 15:16:22;;;;;;;12.35;7.45;;;;;;;1.34;100.00;95219.84;5094383;28;20112;-73
2021/12/17 15:18:49;;;;;;;18.55;6.82;;;;;;;1.29;100.00;95222.91;5071177;28;20119;-73
2021/12/17 15:21:16;;;;;;;16.88;6.38;;;;;;;1.13;100.00;95220.38;5090060;28;20048;-73
2021/12/17 15:23:43;;;;;;;16.70;7.65;;;;;;;1.19;100.00;95222.28;5087138;28;20070;-73